createdAt,value
2018-06-28T00:01:32.774Z,20.35
2018-06-28T00:04:01.404Z,20.41
2018-06-28T00:06:30.020Z,20.25
2018-06-28T00:08:58.731Z,20.16
2018-06-28T00:11:27.333Z,20.00
2018-06-28T00:13:55.986Z,19.92
2018-06-28T00:16:24.708Z,19.81
2018-06-28T00:18:53.353Z,19.77
2018-06-28T00:21:21.921Z,19.77
2018-06-28T00:23:50.499Z,19.50
2018-06-28T00:26:19.189Z,19.47
2018-06-28T00:28:47.725Z,19.44
2018-06-28T00:31:16.301Z,19.49
2018-06-28T00:33:45.212Z,19.26
2018-06-28T00:36:13.837Z,19.33
2018-06-28T00:38:42.387Z,19.38
2018-06-28T00:41:11.056Z,19.37
2018-06-28T00:43:39.686Z,19.38
2018-06-28T00:46:08.541Z,19.34
2018-06-28T00:48:37.156Z,19.25
2018-06-28T00:51:05.852Z,19.21
2018-06-28T00:53:34.512Z,19.16
2018-06-28T00:56:03.264Z,19.17
2018-06-28T00:58:31.808Z,19.07
2018-06-28T01:01:00.401Z,18.96
2018-06-28T01:03:29.144Z,18.93
2018-06-28T01:05:57.764Z,18.98
2018-06-28T01:08:26.384Z,19.04
2018-06-28T01:10:55.119Z,18.89
2018-06-28T01:13:23.776Z,18.85
2018-06-28T01:15:52.384Z,18.92
2018-06-28T01:18:21.008Z,18.96
2018-06-28T01:20:49.590Z,18.89
2018-06-28T01:23:18.191Z,18.86
2018-06-28T01:25:46.848Z,18.72
2018-06-28T01:28:15.517Z,18.79
2018-06-28T01:30:44.192Z,18.78
2018-06-28T01:33:12.868Z,18.70
2018-06-28T01:35:41.398Z,18.71
2018-06-28T01:38:09.991Z,18.75
2018-06-28T01:40:38.696Z,18.55
2018-06-28T01:43:28.645Z,18.43
2018-06-28T01:45:57.298Z,18.23
2018-06-28T01:48:26.234Z,18.16
2018-06-28T01:50:54.781Z,18.18
2018-06-28T01:53:23.388Z,18.25
2018-06-28T01:55:52.021Z,18.22
2018-06-28T01:58:21.078Z,18.18
2018-06-28T02:00:49.725Z,18.21
2018-06-28T02:03:18.634Z,18.23
2018-06-28T02:05:48.336Z,18.08
2018-06-28T02:08:16.965Z,18.07
2018-06-28T02:10:45.609Z,18.07
2018-06-28T02:13:14.232Z,18.04
2018-06-28T02:15:42.917Z,18.06
2018-06-28T02:18:11.543Z,17.89
2018-06-28T02:20:40.538Z,17.70
2018-06-28T02:23:09.336Z,17.64
2018-06-28T02:25:38.364Z,17.54
2018-06-28T02:28:07.048Z,17.60
2018-06-28T02:30:35.774Z,17.49
2018-06-28T02:33:04.285Z,17.54
2018-06-28T02:35:32.966Z,17.57
2018-06-28T02:38:01.631Z,17.57
2018-06-28T02:40:30.253Z,17.41
2018-06-28T02:42:58.800Z,17.50
2018-06-28T02:45:27.372Z,17.35
2018-06-28T02:47:55.936Z,17.32
2018-06-28T02:50:24.624Z,17.22
2018-06-28T02:52:53.140Z,17.25
2018-06-28T02:55:21.803Z,17.28
2018-06-28T02:57:50.425Z,17.29
2018-06-28T03:00:19.037Z,17.40
2018-06-28T03:02:47.564Z,17.28
2018-06-28T03:05:16.252Z,17.29
2018-06-28T03:07:44.885Z,17.36
2018-06-28T03:10:13.428Z,17.29
2018-06-28T03:12:42.105Z,17.27
2018-06-28T03:15:10.671Z,17.24
2018-06-28T03:17:39.349Z,17.33
2018-06-28T03:20:08.131Z,17.41
2018-06-28T03:22:36.841Z,17.27
2018-06-28T03:25:05.641Z,17.35
2018-06-28T03:27:34.348Z,17.34
2018-06-28T03:30:03.035Z,17.21
2018-06-28T03:32:31.803Z,17.08
2018-06-28T03:35:00.428Z,16.83
2018-06-28T03:37:29.027Z,16.80
2018-06-28T03:39:57.691Z,16.78
2018-06-28T03:42:26.277Z,16.95
2018-06-28T03:44:54.871Z,16.91
2018-06-28T03:47:23.724Z,16.76
2018-06-28T03:49:52.325Z,16.93
2018-06-28T03:52:20.951Z,17.01
2018-06-28T03:54:49.600Z,16.98
2018-06-28T03:57:18.261Z,17.08
2018-06-28T03:59:46.833Z,17.15
2018-06-28T04:02:15.372Z,17.25
2018-06-28T04:04:43.972Z,17.50
2018-06-28T04:07:12.512Z,17.63
2018-06-28T04:09:41.110Z,17.57
2018-06-28T04:12:09.268Z,17.72
2018-06-28T04:14:37.851Z,17.74
2018-06-28T04:17:06.432Z,17.65
2018-06-28T04:19:35.142Z,17.66
2018-06-28T04:22:03.734Z,17.55
2018-06-28T04:24:32.740Z,17.58
2018-06-28T04:27:01.533Z,17.50
2018-06-28T04:29:30.244Z,17.42
2018-06-28T04:31:58.879Z,17.26
2018-06-28T04:34:27.477Z,17.38
2018-06-28T04:36:56.040Z,17.51
2018-06-28T04:39:24.645Z,17.61
2018-06-28T04:41:53.285Z,17.81
2018-06-28T04:44:21.868Z,17.92
2018-06-28T04:46:50.477Z,17.85
2018-06-28T04:49:19.160Z,17.84
2018-06-28T04:51:47.739Z,17.82
2018-06-28T04:54:16.356Z,17.78
2018-06-28T04:56:44.924Z,17.84
2018-06-28T04:59:13.542Z,17.95
2018-06-28T05:01:42.113Z,17.97
2018-06-28T05:04:10.717Z,18.06
2018-06-28T05:06:39.320Z,18.03
2018-06-28T05:09:08.748Z,18.11
2018-06-28T05:11:37.329Z,18.18
2018-06-28T05:14:06.408Z,18.27
2018-06-28T05:16:35.141Z,18.46
2018-06-28T05:19:03.913Z,18.64
2018-06-28T05:21:32.562Z,18.77
2018-06-28T05:24:01.443Z,18.85
2018-06-28T05:26:30.026Z,18.96
2018-06-28T05:28:58.616Z,18.97
2018-06-28T05:31:27.282Z,19.07
2018-06-28T05:33:55.896Z,19.13
2018-06-28T05:36:24.607Z,19.22
2018-06-28T05:38:53.411Z,19.29
2018-06-28T05:41:22.097Z,19.27
2018-06-28T05:43:50.668Z,19.26
2018-06-28T05:46:19.275Z,19.28
2018-06-28T05:48:47.857Z,19.37
2018-06-28T05:51:16.460Z,19.38
2018-06-28T05:53:45.312Z,19.48
2018-06-28T05:56:13.953Z,19.59
2018-06-28T05:58:42.637Z,19.66
2018-06-28T06:01:11.215Z,19.77
2018-06-28T06:03:39.783Z,19.82
2018-06-28T06:06:08.355Z,19.88
2018-06-28T06:08:36.980Z,19.97
2018-06-28T06:11:05.566Z,20.11
2018-06-28T06:13:34.152Z,20.06
2018-06-28T06:16:02.726Z,20.14
2018-06-28T06:18:31.318Z,20.21
2018-06-28T06:20:59.911Z,20.27
2018-06-28T06:23:28.511Z,20.42
2018-06-28T06:25:57.286Z,20.47
2018-06-28T06:28:25.980Z,20.53
2018-06-28T06:30:54.739Z,20.58
2018-06-28T06:33:23.312Z,20.64
2018-06-28T06:35:51.909Z,20.65
2018-06-28T06:38:20.536Z,20.74
2018-06-28T06:40:49.124Z,20.80
2018-06-28T06:43:17.748Z,20.84
2018-06-28T06:45:46.337Z,20.94
2018-06-28T06:48:15.687Z,20.95
2018-06-28T06:50:44.228Z,20.95
2018-06-28T06:53:12.877Z,21.03
2018-06-28T06:55:41.732Z,21.11
2018-06-28T06:58:10.373Z,21.16
2018-06-28T07:00:39.092Z,21.27
2018-06-28T07:03:07.777Z,21.38
2018-06-28T07:05:36.362Z,21.45
2018-06-28T07:08:05.292Z,21.67
2018-06-28T07:10:33.901Z,21.87
2018-06-28T07:13:02.537Z,22.06
2018-06-28T07:15:31.157Z,22.13
2018-06-28T07:17:59.849Z,22.16
2018-06-28T07:20:28.481Z,22.18
2018-06-28T07:22:57.214Z,22.34
2018-06-28T07:25:25.956Z,22.45
2018-06-28T07:27:54.555Z,22.55
2018-06-28T07:30:23.146Z,22.71
2018-06-28T07:32:51.692Z,22.92
2018-06-28T07:35:20.310Z,23.11
2018-06-28T07:37:49.075Z,23.04
2018-06-28T07:40:17.769Z,23.20
2018-06-28T07:42:46.548Z,23.16
2018-06-28T07:45:15.107Z,23.30
2018-06-28T07:47:43.721Z,23.37
2018-06-28T07:50:12.321Z,23.50
2018-06-28T07:52:41.018Z,23.51
2018-06-28T07:55:09.732Z,23.56
2018-06-28T07:57:38.404Z,23.69
2018-06-28T08:00:07.973Z,23.76
2018-06-28T08:02:37.112Z,23.82
2018-06-28T08:05:05.740Z,23.85
2018-06-28T08:07:34.338Z,23.89
2018-06-28T08:10:02.939Z,24.00
2018-06-28T08:12:31.514Z,24.05
2018-06-28T08:15:00.069Z,24.22
2018-06-28T08:17:28.744Z,24.25
2018-06-28T08:19:57.264Z,24.23
2018-06-28T08:22:25.897Z,24.29
2018-06-28T08:24:54.524Z,24.30
2018-06-28T08:27:23.249Z,24.36
2018-06-28T08:29:51.801Z,24.40
2018-06-28T08:32:20.479Z,24.47
2018-06-28T08:34:49.074Z,24.55
2018-06-28T08:37:17.801Z,24.68
2018-06-28T08:39:46.385Z,24.76
2018-06-28T08:42:15.190Z,24.74
2018-06-28T08:44:43.824Z,24.73
2018-06-28T08:47:12.436Z,24.82
2018-06-28T08:49:41.011Z,24.87
2018-06-28T08:52:09.608Z,24.90
2018-06-28T08:54:38.173Z,25.03
2018-06-28T08:57:06.755Z,25.11
2018-06-28T08:59:35.369Z,24.97
2018-06-28T09:02:03.934Z,25.03
2018-06-28T09:04:32.536Z,25.10
2018-06-28T09:07:01.176Z,24.98
2018-06-28T09:09:29.865Z,25.07
2018-06-28T09:11:58.388Z,25.24
2018-06-28T09:14:27.024Z,25.36
2018-06-28T09:16:55.587Z,25.40
2018-06-28T09:19:24.171Z,25.41
2018-06-28T09:21:52.736Z,25.48
2018-06-28T09:24:21.331Z,25.50
2018-06-28T09:26:49.908Z,25.34
2018-06-28T09:29:18.528Z,25.30
2018-06-28T09:31:47.145Z,25.27
2018-06-28T09:34:15.839Z,25.29
2018-06-28T09:36:44.439Z,25.43
2018-06-28T09:39:13.012Z,25.54
2018-06-28T09:41:41.624Z,25.58
2018-06-28T09:44:10.204Z,25.50
2018-06-28T09:46:38.846Z,25.56
2018-06-28T09:49:07.425Z,25.73
2018-06-28T09:51:36.045Z,25.79
2018-06-28T09:54:04.784Z,26.04
2018-06-28T09:56:33.456Z,26.18
2018-06-28T09:59:02.012Z,26.31
2018-06-28T10:01:30.681Z,26.46
2018-06-28T10:03:59.281Z,26.70
2018-06-28T10:06:27.919Z,26.66
2018-06-28T10:08:56.658Z,26.83
2018-06-28T10:11:25.297Z,26.74
2018-06-28T10:13:53.901Z,26.99
2018-06-28T10:16:22.590Z,26.99
2018-06-28T10:18:51.213Z,26.99
2018-06-28T10:21:19.796Z,26.93
2018-06-28T10:23:48.353Z,26.89
2018-06-28T10:26:17.076Z,26.81
2018-06-28T10:28:45.641Z,26.99
2018-06-28T10:31:14.328Z,27.16
2018-06-28T10:33:43.260Z,27.30
2018-06-28T10:36:16.329Z,27.33
2018-06-28T10:38:45.048Z,27.34
2018-06-28T10:41:13.595Z,27.68
2018-06-28T10:43:42.660Z,27.86
2018-06-28T10:46:11.247Z,27.89
2018-06-28T10:48:39.834Z,27.95
2018-06-28T10:51:08.420Z,28.15
2018-06-28T10:53:37.064Z,28.24
2018-06-28T10:56:05.985Z,28.25
2018-06-28T10:58:34.576Z,28.22
2018-06-28T11:01:03.239Z,28.31
2018-06-28T11:03:31.823Z,28.32
2018-06-28T11:06:00.701Z,28.48
2018-06-28T11:08:29.311Z,28.54
2018-06-28T11:10:57.850Z,28.50
2018-06-28T11:13:26.606Z,28.71
2018-06-28T11:15:55.172Z,28.75
2018-06-28T11:18:23.809Z,28.98
2018-06-28T11:20:52.345Z,29.18
2018-06-28T11:23:20.924Z,28.57
2018-06-28T11:25:49.528Z,28.38
2018-06-28T11:28:18.094Z,28.45
2018-06-28T11:30:46.685Z,28.72
2018-06-28T11:33:15.349Z,29.03
2018-06-28T11:35:44.042Z,28.35
2018-06-28T11:38:12.639Z,28.12
2018-06-28T11:40:41.236Z,28.35
2018-06-28T11:43:09.816Z,28.41
2018-06-28T11:45:38.424Z,28.54
2018-06-28T11:48:07.013Z,28.90
2018-06-28T11:50:35.732Z,29.10
2018-06-28T11:53:04.316Z,29.51
2018-06-28T11:55:32.951Z,30.01
2018-06-28T11:58:01.621Z,29.75
2018-06-28T12:00:30.220Z,30.09
2018-06-28T12:02:58.784Z,30.04
2018-06-28T12:05:27.482Z,30.16
2018-06-28T12:07:56.017Z,29.59
2018-06-28T12:10:24.634Z,29.14
2018-06-28T12:12:53.276Z,29.38
2018-06-28T12:15:22.058Z,29.64
2018-06-28T12:17:50.632Z,29.85
2018-06-28T12:20:19.228Z,29.91
2018-06-28T12:22:47.832Z,29.95
2018-06-28T12:25:16.411Z,30.21
2018-06-28T12:27:44.944Z,30.32
2018-06-28T12:30:13.674Z,30.27
2018-06-28T12:32:42.239Z,30.56
2018-06-28T12:35:10.776Z,30.79
2018-06-28T12:37:39.532Z,29.81
2018-06-28T12:40:08.220Z,29.76
2018-06-28T12:42:36.928Z,30.16
2018-06-28T12:45:05.506Z,30.63
2018-06-28T12:47:50.581Z,30.67
2018-06-28T12:50:19.289Z,30.53
2018-06-28T12:52:50.800Z,30.63
2018-06-28T12:55:20.219Z,30.59
2018-06-28T12:57:49.403Z,30.77
2018-06-28T13:00:18.469Z,30.80
2018-06-28T13:02:47.403Z,30.57
2018-06-28T13:05:16.687Z,30.51
2018-06-28T13:07:45.481Z,30.70
2018-06-28T13:10:15.486Z,30.82
2018-06-28T13:12:44.273Z,31.02
2018-06-28T13:15:13.920Z,31.07
2018-06-28T13:17:42.732Z,31.36
2018-06-28T13:20:11.873Z,31.64
2018-06-28T13:22:41.081Z,31.83
2018-06-28T13:25:10.894Z,31.59
2018-06-28T13:27:39.617Z,31.48
2018-06-28T13:30:09.630Z,31.95
2018-06-28T13:32:38.264Z,32.19
2018-06-28T13:35:07.172Z,31.92
2018-06-28T13:37:35.757Z,31.16
2018-06-28T13:40:04.617Z,31.36
2018-06-28T13:42:33.162Z,31.21
2018-06-28T13:45:01.829Z,31.67
2018-06-28T13:47:30.468Z,32.11
2018-06-28T13:49:59.133Z,32.52
2018-06-28T13:52:27.712Z,32.35
2018-06-28T13:54:56.316Z,32.70
2018-06-28T13:57:24.923Z,32.44
2018-06-28T13:59:53.637Z,32.82
2018-06-28T14:02:22.212Z,32.36
2018-06-28T14:04:50.868Z,32.49
2018-06-28T14:07:19.445Z,32.24
2018-06-28T14:09:48.066Z,32.50
2018-06-28T14:12:16.746Z,32.74
2018-06-28T14:14:45.350Z,32.80
2018-06-28T14:17:13.921Z,31.63
2018-06-28T14:19:42.529Z,30.94
2018-06-28T14:22:11.262Z,31.32
2018-06-28T14:24:39.836Z,31.35
2018-06-28T14:27:09.329Z,31.76
2018-06-28T14:29:37.871Z,32.19
2018-06-28T14:32:06.864Z,31.06
2018-06-28T14:34:35.482Z,31.31
2018-06-28T14:37:04.180Z,31.29
2018-06-28T14:39:32.843Z,30.80
2018-06-28T14:42:01.479Z,31.91
2018-06-28T14:44:30.051Z,32.64
2018-06-28T14:46:58.666Z,32.64
2018-06-28T14:49:27.269Z,32.23
2018-06-28T14:51:56.129Z,32.16
2018-06-28T14:54:24.819Z,31.92
2018-06-28T14:56:53.545Z,32.59
2018-06-28T14:59:22.116Z,32.66
2018-06-28T15:01:50.697Z,31.47
2018-06-28T15:04:19.360Z,30.94
2018-06-28T15:06:47.991Z,30.63
2018-06-28T15:09:16.546Z,30.67
2018-06-28T15:11:45.477Z,30.59
2018-06-28T15:14:14.307Z,30.72
2018-06-28T15:16:42.981Z,31.21
2018-06-28T15:19:11.596Z,32.12
2018-06-28T15:21:40.157Z,32.54
2018-06-28T15:24:08.846Z,32.64
2018-06-28T15:26:37.389Z,32.93
2018-06-28T15:29:06.112Z,32.98
2018-06-28T15:31:34.664Z,33.18
2018-06-28T15:34:03.475Z,33.29
2018-06-28T15:36:32.121Z,33.28
2018-06-28T15:39:00.769Z,33.40
2018-06-28T15:41:29.325Z,33.45
2018-06-28T15:43:57.979Z,33.36
2018-06-28T15:46:26.509Z,33.54
2018-06-28T15:48:55.093Z,32.73
2018-06-28T15:51:23.780Z,32.75
2018-06-28T15:53:52.417Z,32.80
2018-06-28T15:56:21.088Z,32.42
2018-06-28T15:58:49.675Z,32.50
2018-06-28T16:01:18.279Z,32.63
2018-06-28T16:03:46.992Z,31.73
2018-06-28T16:06:15.688Z,31.40
2018-06-28T16:08:44.238Z,31.19
2018-06-28T16:11:12.898Z,30.78
2018-06-28T16:13:41.459Z,30.63
2018-06-28T16:16:10.352Z,30.88
2018-06-28T16:18:38.963Z,30.38
2018-06-28T16:21:07.896Z,30.38
2018-06-28T16:23:36.521Z,30.97
2018-06-28T16:26:05.542Z,31.13
2018-06-28T16:28:34.113Z,31.72
2018-06-28T16:31:02.860Z,31.61
2018-06-28T16:33:31.450Z,31.70
2018-06-28T16:36:00.110Z,31.83
2018-06-28T16:38:28.756Z,31.87
2018-06-28T16:40:57.396Z,31.97
2018-06-28T16:43:26.054Z,32.37
2018-06-28T16:45:54.765Z,32.48
2018-06-28T16:48:23.554Z,32.24
2018-06-28T16:50:52.121Z,32.03
2018-06-28T16:53:20.753Z,32.13
2018-06-28T16:55:49.409Z,32.27
2018-06-28T16:58:18.090Z,32.03
2018-06-28T17:00:46.688Z,32.00
2018-06-28T17:03:16.770Z,32.12
2018-06-28T17:05:45.975Z,31.78
2018-06-28T17:08:14.576Z,32.06
2018-06-28T17:10:43.269Z,31.88
2018-06-28T17:13:11.981Z,31.85
2018-06-28T17:15:40.560Z,31.77
2018-06-28T17:18:09.356Z,31.70
2018-06-28T17:20:37.944Z,31.62
2018-06-28T17:23:06.624Z,31.37
2018-06-28T17:25:35.173Z,31.46
2018-06-28T17:28:03.842Z,31.38
2018-06-28T17:30:32.488Z,31.51
2018-06-28T17:33:01.159Z,31.59
2018-06-28T17:35:29.719Z,31.36
2018-06-28T17:37:58.368Z,31.25
2018-06-28T17:40:26.969Z,31.19
2018-06-28T17:42:55.724Z,31.36
2018-06-28T17:45:24.425Z,31.11
2018-06-28T17:47:53.041Z,31.32
2018-06-28T17:50:21.655Z,31.23
2018-06-28T17:52:50.219Z,31.25
2018-06-28T17:55:18.860Z,31.06
2018-06-28T17:57:47.472Z,30.59
2018-06-28T18:00:16.327Z,30.47
2018-06-28T18:02:45.128Z,30.38
2018-06-28T18:05:13.809Z,30.42
2018-06-28T18:07:42.520Z,30.61
2018-06-28T18:10:11.357Z,30.24
2018-06-28T18:12:39.982Z,30.24
2018-06-28T18:15:08.680Z,30.32
2018-06-28T18:17:37.288Z,30.31
2018-06-28T18:20:05.995Z,30.08
2018-06-28T18:22:34.599Z,30.33
2018-06-28T18:25:03.181Z,30.06
2018-06-28T18:27:31.779Z,30.05
2018-06-28T18:30:00.395Z,30.27
2018-06-28T18:32:31.466Z,30.13
2018-06-28T18:35:00.214Z,29.94
2018-06-28T18:37:28.872Z,30.20
2018-06-28T18:39:57.674Z,30.15
2018-06-28T18:42:26.275Z,29.94
2018-06-28T18:44:54.933Z,30.03
2018-06-28T18:47:23.541Z,29.71
2018-06-28T18:49:52.117Z,29.43
2018-06-28T18:52:20.739Z,29.13
2018-06-28T18:54:49.337Z,28.86
2018-06-28T18:57:17.956Z,28.70
2018-06-28T18:59:46.581Z,28.26
2018-06-28T19:02:15.307Z,28.01
2018-06-28T19:04:43.983Z,28.01
2018-06-28T19:07:12.724Z,28.03
2018-06-28T19:09:46.684Z,28.05
2018-06-28T19:12:15.350Z,27.98
2018-06-28T19:14:49.265Z,27.95
2018-06-28T19:17:17.968Z,27.97
2018-06-28T19:19:46.604Z,28.05
2018-06-28T19:22:20.591Z,27.99
2018-06-28T19:24:49.212Z,27.94
2018-06-28T19:27:17.880Z,27.80
2018-06-28T19:29:51.742Z,27.66
2018-06-28T19:32:25.766Z,27.55
2018-06-28T19:34:54.577Z,27.43
2018-06-28T19:37:28.364Z,27.26
2018-06-28T19:40:02.326Z,27.17
2018-06-28T19:42:36.120Z,27.07
2018-06-28T19:45:04.824Z,27.00
2018-06-28T19:47:33.525Z,26.82
2018-06-28T19:50:07.234Z,26.83
2018-06-28T19:52:40.990Z,26.82
2018-06-28T19:55:09.701Z,26.72
2018-06-28T19:57:38.357Z,26.66
2018-06-28T20:00:06.996Z,26.42
2018-06-28T20:02:40.929Z,26.24
2018-06-28T20:05:09.617Z,26.19
2018-06-28T20:07:38.249Z,26.12
2018-06-28T20:10:07.107Z,25.96
2018-06-28T20:12:41.185Z,25.89
2018-06-28T20:15:15.000Z,25.69
2018-06-28T20:18:01.592Z,25.54
2018-06-28T20:32:25.067Z,25.32
2018-06-28T20:34:53.736Z,25.21
2018-06-28T20:37:22.302Z,25.30
2018-06-28T20:39:50.879Z,25.37
